sensor_id;sensor_type;location;lat;lon;timestamp;P1;durP1;ratioP1;P2;durP2;ratioP2
26106;SDS011;13866;50.748;12.630;2024-03-08T00:01:47;30.57;;;24.33;;
26106;SDS011;13866;50.748;12.630;2024-03-08T00:04:12;33.67;;;24.07;;
26106;SDS011;13866;50.748;12.630;2024-03-08T00:06:40;26.50;;;22.27;;
26106;SDS011;13866;50.748;12.630;2024-03-08T00:09:05;34.63;;;25.40;;
26106;SDS011;13866;50.748;12.630;2024-03-08T00:11:32;28.33;;;23.47;;
26106;SDS011;13866;50.748;12.630;2024-03-08T00:14:00;31.60;;;24.40;;
26106;SDS011;13866;50.748;12.630;2024-03-08T00:16:26;29.67;;;21.70;;
26106;SDS011;13866;50.748;12.630;2024-03-08T00:18:52;27.00;;;23.10;;
26106;SDS011;13866;50.748;12.630;2024-03-08T00:21:17;27.40;;;21.10;;
26106;SDS011;13866;50.748;12.630;2024-03-08T00:23:43;26.83;;;21.30;;
26106;SDS011;13866;50.748;12.630;2024-03-08T00:26:08;32.03;;;23.37;;
26106;SDS011;13866;50.748;12.630;2024-03-08T00:28:34;32.63;;;24.00;;
26106;SDS011;13866;50.748;12.630;2024-03-08T00:31:00;30.07;;;23.90;;
26106;SDS011;13866;50.748;12.630;2024-03-08T00:33:26;27.70;;;23.27;;
26106;SDS011;13866;50.748;12.630;2024-03-08T00:35:52;29.37;;;23.57;;
26106;SDS011;13866;50.748;12.630;2024-03-08T00:38:20;32.93;;;24.33;;
26106;SDS011;13866;50.748;12.630;2024-03-08T00:40:46;32.23;;;24.77;;
26106;SDS011;13866;50.748;12.630;2024-03-08T00:43:11;31.50;;;24.37;;
26106;SDS011;13866;50.748;12.630;2024-03-08T00:45:38;33.53;;;24.10;;
26106;SDS011;13866;50.748;12.630;2024-03-08T00:48:03;27.30;;;21.90;;
26106;SDS011;13866;50.748;12.630;2024-03-08T00:50:30;30.50;;;24.90;;
26106;SDS011;13866;50.748;12.630;2024-03-08T00:52:56;29.20;;;23.60;;
26106;SDS011;13866;50.748;12.630;2024-03-08T00:55:21;34.07;;;24.00;;
26106;SDS011;13866;50.748;12.630;2024-03-08T00:57:47;35.47;;;25.37;;
26106;SDS011;13866;50.748;12.630;2024-03-08T01:00:12;28.30;;;23.20;;
26106;SDS011;13866;50.748;12.630;2024-03-08T01:02:38;32.10;;;23.93;;
26106;SDS011;13866;50.748;12.630;2024-03-08T01:05:05;32.13;;;23.90;;
26106;SDS011;13866;50.748;12.630;2024-03-08T01:07:32;33.57;;;24.20;;
26106;SDS011;13866;50.748;12.630;2024-03-08T01:09:59;30.58;;;24.48;;
26106;SDS011;13866;50.748;12.630;2024-03-08T01:12:25;31.33;;;24.00;;
26106;SDS011;13866;50.748;12.630;2024-03-08T01:14:51;33.77;;;24.83;;
26106;SDS011;13866;50.748;12.630;2024-03-08T01:17:16;37.63;;;26.77;;
26106;SDS011;13866;50.748;12.630;2024-03-08T01:19:42;29.47;;;23.23;;
26106;SDS011;13866;50.748;12.630;2024-03-08T01:22:09;33.03;;;26.25;;
26106;SDS011;13866;50.748;12.630;2024-03-08T01:24:35;33.17;;;25.00;;
26106;SDS011;13866;50.748;12.630;2024-03-08T01:27:02;28.38;;;22.15;;
26106;SDS011;13866;50.748;12.630;2024-03-08T01:29:27;35.97;;;24.60;;
26106;SDS011;13866;50.748;12.630;2024-03-08T01:31:54;34.10;;;24.90;;
26106;SDS011;13866;50.748;12.630;2024-03-08T01:34:21;33.53;;;24.03;;
26106;SDS011;13866;50.748;12.630;2024-03-08T01:36:47;31.80;;;24.65;;
26106;SDS011;13866;50.748;12.630;2024-03-08T01:39:13;34.97;;;25.60;;
26106;SDS011;13866;50.748;12.630;2024-03-08T01:41:39;33.43;;;26.33;;
26106;SDS011;13866;50.748;12.630;2024-03-08T01:44:05;34.80;;;24.83;;
26106;SDS011;13866;50.748;12.630;2024-03-08T01:46:32;32.70;;;24.47;;
26106;SDS011;13866;50.748;12.630;2024-03-08T01:48:59;31.30;;;26.55;;
26106;SDS011;13866;50.748;12.630;2024-03-08T01:51:25;38.60;;;27.47;;
26106;SDS011;13866;50.748;12.630;2024-03-08T01:53:52;34.55;;;24.88;;
26106;SDS011;13866;50.748;12.630;2024-03-08T01:56:18;36.13;;;26.03;;
26106;SDS011;13866;50.748;12.630;2024-03-08T01:58:44;32.92;;;25.38;;
26106;SDS011;13866;50.748;12.630;2024-03-08T02:01:10;37.50;;;25.20;;
26106;SDS011;13866;50.748;12.630;2024-03-08T02:03:38;33.00;;;25.67;;
26106;SDS011;13866;50.748;12.630;2024-03-08T02:06:03;35.33;;;25.13;;
26106;SDS011;13866;50.748;12.630;2024-03-08T02:08:30;34.33;;;25.05;;
26106;SDS011;13866;50.748;12.630;2024-03-08T02:10:56;35.30;;;25.38;;
26106;SDS011;13866;50.748;12.630;2024-03-08T02:13:22;32.70;;;24.50;;
26106;SDS011;13866;50.748;12.630;2024-03-08T02:15:54;41.50;;;27.73;;
26106;SDS011;13866;50.748;12.630;2024-03-08T02:18:21;36.67;;;26.10;;
26106;SDS011;13866;50.748;12.630;2024-03-08T02:20:47;34.87;;;28.70;;
26106;SDS011;13866;50.748;12.630;2024-03-08T02:23:14;33.63;;;25.23;;
26106;SDS011;13866;50.748;12.630;2024-03-08T02:25:41;34.80;;;27.08;;
26106;SDS011;13866;50.748;12.630;2024-03-08T02:28:10;34.92;;;26.50;;
26106;SDS011;13866;50.748;12.630;2024-03-08T02:30:36;31.25;;;24.42;;
26106;SDS011;13866;50.748;12.630;2024-03-08T02:33:02;40.90;;;27.60;;
26106;SDS011;13866;50.748;12.630;2024-03-08T02:35:28;34.20;;;27.80;;
26106;SDS011;13866;50.748;12.630;2024-03-08T02:37:54;40.00;;;27.33;;
26106;SDS011;13866;50.748;12.630;2024-03-08T02:40:19;44.47;;;27.40;;
26106;SDS011;13866;50.748;12.630;2024-03-08T02:42:45;34.73;;;27.40;;
26106;SDS011;13866;50.748;12.630;2024-03-08T02:45:10;34.33;;;26.30;;
26106;SDS011;13866;50.748;12.630;2024-03-08T02:47:36;40.50;;;28.50;;
26106;SDS011;13866;50.748;12.630;2024-03-08T02:50:01;54.80;;;30.03;;
26106;SDS011;13866;50.748;12.630;2024-03-08T02:52:28;47.22;;;28.50;;
26106;SDS011;13866;50.748;12.630;2024-03-08T02:54:53;36.77;;;25.97;;
26106;SDS011;13866;50.748;12.630;2024-03-08T02:57:19;34.70;;;27.87;;
26106;SDS011;13866;50.748;12.630;2024-03-08T02:59:44;38.50;;;27.90;;
26106;SDS011;13866;50.748;12.630;2024-03-08T03:02:10;34.63;;;27.13;;
26106;SDS011;13866;50.748;12.630;2024-03-08T03:04:36;41.90;;;28.73;;
26106;SDS011;13866;50.748;12.630;2024-03-08T03:07:05;36.08;;;28.17;;
26106;SDS011;13866;50.748;12.630;2024-03-08T03:09:30;34.20;;;26.63;;
26106;SDS011;13866;50.748;12.630;2024-03-08T03:11:57;45.55;;;27.35;;
26106;SDS011;13866;50.748;12.630;2024-03-08T03:14:26;40.88;;;28.08;;
26106;SDS011;13866;50.748;12.630;2024-03-08T03:16:54;45.60;;;27.90;;
26106;SDS011;13866;50.748;12.630;2024-03-08T03:19:20;39.90;;;28.77;;
26106;SDS011;13866;50.748;12.630;2024-03-08T03:21:45;38.03;;;27.30;;
26106;SDS011;13866;50.748;12.630;2024-03-08T03:24:12;36.15;;;27.10;;
26106;SDS011;13866;50.748;12.630;2024-03-08T03:26:41;49.42;;;28.42;;
26106;SDS011;13866;50.748;12.630;2024-03-08T03:29:08;42.30;;;29.80;;
26106;SDS011;13866;50.748;12.630;2024-03-08T03:31:34;42.80;;;28.33;;
26106;SDS011;13866;50.748;12.630;2024-03-08T03:34:01;41.72;;;28.85;;
26106;SDS011;13866;50.748;12.630;2024-03-08T03:36:28;33.88;;;25.23;;
26106;SDS011;13866;50.748;12.630;2024-03-08T03:38:54;42.95;;;26.50;;
26106;SDS011;13866;50.748;12.630;2024-03-08T03:41:37;45.67;;;29.80;;
26106;SDS011;13866;50.748;12.630;2024-03-08T03:44:04;40.13;;;27.95;;
26106;SDS011;13866;50.748;12.630;2024-03-08T03:46:31;43.45;;;29.55;;
26106;SDS011;13866;50.748;12.630;2024-03-08T03:48:57;40.13;;;28.00;;
26106;SDS011;13866;50.748;12.630;2024-03-08T03:51:23;44.70;;;29.20;;
26106;SDS011;13866;50.748;12.630;2024-03-08T03:53:49;48.57;;;29.10;;
26106;SDS011;13866;50.748;12.630;2024-03-08T03:56:15;38.90;;;28.40;;
26106;SDS011;13866;50.748;12.630;2024-03-08T03:58:40;36.97;;;28.93;;
26106;SDS011;13866;50.748;12.630;2024-03-08T04:01:06;34.50;;;27.63;;
26106;SDS011;13866;50.748;12.630;2024-03-08T04:03:31;43.00;;;28.27;;
26106;SDS011;13866;50.748;12.630;2024-03-08T04:05:57;34.73;;;26.07;;
26106;SDS011;13866;50.748;12.630;2024-03-08T04:08:22;38.67;;;27.40;;
26106;SDS011;13866;50.748;12.630;2024-03-08T04:10:51;33.65;;;26.50;;
26106;SDS011;13866;50.748;12.630;2024-03-08T04:13:16;42.40;;;29.37;;
26106;SDS011;13866;50.748;12.630;2024-03-08T04:15:41;47.23;;;29.23;;
26106;SDS011;13866;50.748;12.630;2024-03-08T04:18:09;35.53;;;26.70;;
26106;SDS011;13866;50.748;12.630;2024-03-08T04:20:34;35.73;;;25.50;;
26106;SDS011;13866;50.748;12.630;2024-03-08T04:23:00;46.00;;;31.10;;
26106;SDS011;13866;50.748;12.630;2024-03-08T04:25:27;41.38;;;29.17;;
26106;SDS011;13866;50.748;12.630;2024-03-08T04:27:53;39.70;;;28.90;;
26106;SDS011;13866;50.748;12.630;2024-03-08T04:30:18;46.13;;;27.53;;
26106;SDS011;13866;50.748;12.630;2024-03-08T04:32:46;46.70;;;28.95;;
26106;SDS011;13866;50.748;12.630;2024-03-08T04:35:12;47.03;;;29.65;;
26106;SDS011;13866;50.748;12.630;2024-03-08T04:37:37;38.40;;;26.27;;
26106;SDS011;13866;50.748;12.630;2024-03-08T04:40:03;45.97;;;27.87;;
26106;SDS011;13866;50.748;12.630;2024-03-08T04:42:29;46.20;;;29.80;;
26106;SDS011;13866;50.748;12.630;2024-03-08T04:44:57;46.83;;;29.50;;
26106;SDS011;13866;50.748;12.630;2024-03-08T04:47:23;43.03;;;28.90;;
26106;SDS011;13866;50.748;12.630;2024-03-08T04:49:48;57.83;;;32.47;;
26106;SDS011;13866;50.748;12.630;2024-03-08T04:52:15;44.63;;;26.52;;
26106;SDS011;13866;50.748;12.630;2024-03-08T04:54:41;53.05;;;32.30;;
26106;SDS011;13866;50.748;12.630;2024-03-08T04:57:07;37.73;;;26.67;;
26106;SDS011;13866;50.748;12.630;2024-03-08T04:59:32;42.50;;;29.67;;
26106;SDS011;13866;50.748;12.630;2024-03-08T05:01:58;40.63;;;27.30;;
26106;SDS011;13866;50.748;12.630;2024-03-08T05:04:23;41.90;;;28.57;;
26106;SDS011;13866;50.748;12.630;2024-03-08T05:06:49;46.33;;;28.53;;
26106;SDS011;13866;50.748;12.630;2024-03-08T05:09:14;46.30;;;29.30;;
26106;SDS011;13866;50.748;12.630;2024-03-08T05:11:41;41.03;;;28.50;;
26106;SDS011;13866;50.748;12.630;2024-03-08T05:14:09;45.88;;;29.23;;
26106;SDS011;13866;50.748;12.630;2024-03-08T05:16:35;42.55;;;28.08;;
26106;SDS011;13866;50.748;12.630;2024-03-08T05:19:01;43.13;;;27.20;;
26106;SDS011;13866;50.748;12.630;2024-03-08T05:21:27;44.08;;;27.90;;
26106;SDS011;13866;50.748;12.630;2024-03-08T05:23:54;48.53;;;32.45;;
26106;SDS011;13866;50.748;12.630;2024-03-08T05:26:19;44.60;;;28.33;;
26106;SDS011;13866;50.748;12.630;2024-03-08T05:28:45;39.37;;;29.07;;
26106;SDS011;13866;50.748;12.630;2024-03-08T05:31:17;46.35;;;31.38;;
26106;SDS011;13866;50.748;12.630;2024-03-08T05:33:44;46.13;;;29.92;;
26106;SDS011;13866;50.748;12.630;2024-03-08T05:36:09;49.33;;;29.13;;
26106;SDS011;13866;50.748;12.630;2024-03-08T05:38:36;51.50;;;31.70;;
26106;SDS011;13866;50.748;12.630;2024-03-08T05:41:02;49.17;;;32.40;;
26106;SDS011;13866;50.748;12.630;2024-03-08T05:43:27;47.40;;;29.50;;
26106;SDS011;13866;50.748;12.630;2024-03-08T05:45:53;42.90;;;29.53;;
26106;SDS011;13866;50.748;12.630;2024-03-08T05:48:18;43.23;;;29.00;;
26106;SDS011;13866;50.748;12.630;2024-03-08T05:50:44;44.40;;;30.37;;
26106;SDS011;13866;50.748;12.630;2024-03-08T05:53:09;44.87;;;30.03;;
26106;SDS011;13866;50.748;12.630;2024-03-08T05:55:35;44.50;;;29.63;;
26106;SDS011;13866;50.748;12.630;2024-03-08T05:58:01;49.77;;;30.90;;
26106;SDS011;13866;50.748;12.630;2024-03-08T06:00:26;45.53;;;30.83;;
26106;SDS011;13866;50.748;12.630;2024-03-08T06:02:52;48.10;;;30.73;;
26106;SDS011;13866;50.748;12.630;2024-03-08T06:05:17;44.67;;;29.73;;
26106;SDS011;13866;50.748;12.630;2024-03-08T06:07:43;46.53;;;29.77;;
26106;SDS011;13866;50.748;12.630;2024-03-08T06:10:09;41.37;;;28.97;;
26106;SDS011;13866;50.748;12.630;2024-03-08T06:12:35;51.55;;;32.60;;
26106;SDS011;13866;50.748;12.630;2024-03-08T06:15:07;44.10;;;30.20;;
26106;SDS011;13866;50.748;12.630;2024-03-08T06:17:33;46.85;;;31.75;;
26106;SDS011;13866;50.748;12.630;2024-03-08T06:19:59;46.23;;;31.67;;
26106;SDS011;13866;50.748;12.630;2024-03-08T06:22:25;52.13;;;31.57;;
26106;SDS011;13866;50.748;12.630;2024-03-08T06:24:50;45.67;;;31.47;;
26106;SDS011;13866;50.748;12.630;2024-03-08T06:27:16;57.03;;;35.47;;
26106;SDS011;13866;50.748;12.630;2024-03-08T06:29:42;57.10;;;35.92;;
26106;SDS011;13866;50.748;12.630;2024-03-08T06:32:08;56.70;;;34.70;;
26106;SDS011;13866;50.748;12.630;2024-03-08T06:34:33;51.80;;;33.77;;
26106;SDS011;13866;50.748;12.630;2024-03-08T06:37:01;51.67;;;33.00;;
26106;SDS011;13866;50.748;12.630;2024-03-08T06:39:27;53.33;;;32.30;;
26106;SDS011;13866;50.748;12.630;2024-03-08T06:41:56;64.20;;;36.25;;
26106;SDS011;13866;50.748;12.630;2024-03-08T06:44:22;54.63;;;35.93;;
26106;SDS011;13866;50.748;12.630;2024-03-08T06:46:47;53.77;;;34.40;;
26106;SDS011;13866;50.748;12.630;2024-03-08T06:49:13;58.47;;;36.30;;
26106;SDS011;13866;50.748;12.630;2024-03-08T06:51:40;56.93;;;36.30;;
26106;SDS011;13866;50.748;12.630;2024-03-08T06:54:06;59.47;;;35.00;;
26106;SDS011;13866;50.748;12.630;2024-03-08T06:56:33;53.83;;;35.10;;
26106;SDS011;13866;50.748;12.630;2024-03-08T06:58:59;50.60;;;34.30;;
26106;SDS011;13866;50.748;12.630;2024-03-08T07:01:27;54.40;;;34.17;;
26106;SDS011;13866;50.748;12.630;2024-03-08T07:03:56;55.30;;;36.43;;
26106;SDS011;13866;50.748;12.630;2024-03-08T07:06:22;57.07;;;34.33;;
26106;SDS011;13866;50.748;12.630;2024-03-08T07:08:48;55.93;;;35.23;;
26106;SDS011;13866;50.748;12.630;2024-03-08T07:11:13;52.17;;;35.03;;
26106;SDS011;13866;50.748;12.630;2024-03-08T07:13:43;53.57;;;35.87;;
26106;SDS011;13866;50.748;12.630;2024-03-08T07:16:10;54.70;;;35.97;;
26106;SDS011;13866;50.748;12.630;2024-03-08T07:18:36;55.40;;;35.30;;
26106;SDS011;13866;50.748;12.630;2024-03-08T07:21:04;54.73;;;36.63;;
26106;SDS011;13866;50.748;12.630;2024-03-08T07:23:30;50.67;;;34.17;;
26106;SDS011;13866;50.748;12.630;2024-03-08T07:26:14;57.07;;;33.90;;
26106;SDS011;13866;50.748;12.630;2024-03-08T07:28:40;52.80;;;34.83;;
26106;SDS011;13866;50.748;12.630;2024-03-08T07:31:06;50.13;;;34.83;;
26106;SDS011;13866;50.748;12.630;2024-03-08T07:33:37;54.77;;;35.83;;
26106;SDS011;13866;50.748;12.630;2024-03-08T07:36:03;52.83;;;35.73;;
26106;SDS011;13866;50.748;12.630;2024-03-08T07:38:29;58.70;;;33.90;;
26106;SDS011;13866;50.748;12.630;2024-03-08T07:40:55;56.13;;;36.07;;
26106;SDS011;13866;50.748;12.630;2024-03-08T07:43:22;50.60;;;33.03;;
26106;SDS011;13866;50.748;12.630;2024-03-08T07:45:47;48.13;;;31.70;;
26106;SDS011;13866;50.748;12.630;2024-03-08T07:48:13;53.60;;;35.50;;
26106;SDS011;13866;50.748;12.630;2024-03-08T07:50:39;59.10;;;33.40;;
26106;SDS011;13866;50.748;12.630;2024-03-08T07:53:05;50.40;;;32.90;;
26106;SDS011;13866;50.748;12.630;2024-03-08T07:55:35;60.70;;;33.50;;
26106;SDS011;13866;50.748;12.630;2024-03-08T07:58:01;43.60;;;31.93;;
26106;SDS011;13866;50.748;12.630;2024-03-08T08:00:27;53.03;;;32.83;;
26106;SDS011;13866;50.748;12.630;2024-03-08T08:02:55;50.13;;;31.10;;
26106;SDS011;13866;50.748;12.630;2024-03-08T08:05:21;42.10;;;32.10;;
26106;SDS011;13866;50.748;12.630;2024-03-08T08:07:46;41.20;;;30.07;;
26106;SDS011;13866;50.748;12.630;2024-03-08T08:10:15;42.80;;;28.50;;
26106;SDS011;13866;50.748;12.630;2024-03-08T08:12:46;40.50;;;29.50;;
26106;SDS011;13866;50.748;12.630;2024-03-08T08:15:15;43.37;;;30.10;;
26106;SDS011;13866;50.748;12.630;2024-03-08T08:17:41;42.83;;;30.37;;
26106;SDS011;13866;50.748;12.630;2024-03-08T08:20:08;47.13;;;29.90;;
26106;SDS011;13866;50.748;12.630;2024-03-08T08:22:35;55.30;;;28.50;;
26106;SDS011;13866;50.748;12.630;2024-03-08T08:25:00;56.17;;;29.20;;
26106;SDS011;13866;50.748;12.630;2024-03-08T08:27:26;47.03;;;30.03;;
26106;SDS011;13866;50.748;12.630;2024-03-08T08:29:52;36.37;;;26.90;;
26106;SDS011;13866;50.748;12.630;2024-03-08T08:32:17;33.40;;;24.97;;
26106;SDS011;13866;50.748;12.630;2024-03-08T08:34:43;39.43;;;24.07;;
26106;SDS011;13866;50.748;12.630;2024-03-08T08:37:09;29.77;;;23.70;;
26106;SDS011;13866;50.748;12.630;2024-03-08T08:39:35;28.63;;;22.17;;
26106;SDS011;13866;50.748;12.630;2024-03-08T08:42:00;37.50;;;25.03;;
26106;SDS011;13866;50.748;12.630;2024-03-08T08:44:27;26.27;;;22.00;;
26106;SDS011;13866;50.748;12.630;2024-03-08T08:46:53;24.50;;;20.10;;
26106;SDS011;13866;50.748;12.630;2024-03-08T08:49:18;24.93;;;19.93;;
26106;SDS011;13866;50.748;12.630;2024-03-08T08:51:50;22.40;;;17.80;;
26106;SDS011;13866;50.748;12.630;2024-03-08T08:54:15;24.27;;;20.10;;
26106;SDS011;13866;50.748;12.630;2024-03-08T08:56:42;22.77;;;18.30;;
26106;SDS011;13866;50.748;12.630;2024-03-08T08:59:09;24.60;;;18.50;;
26106;SDS011;13866;50.748;12.630;2024-03-08T09:01:34;24.73;;;18.90;;
26106;SDS011;13866;50.748;12.630;2024-03-08T09:04:00;21.17;;;17.90;;
26106;SDS011;13866;50.748;12.630;2024-03-08T09:06:25;20.47;;;17.70;;
26106;SDS011;13866;50.748;12.630;2024-03-08T09:08:51;21.27;;;18.87;;
26106;SDS011;13866;50.748;12.630;2024-03-08T09:11:17;25.10;;;18.67;;
26106;SDS011;13866;50.748;12.630;2024-03-08T09:13:46;20.73;;;17.50;;
26106;SDS011;13866;50.748;12.630;2024-03-08T09:16:12;24.93;;;18.80;;
26106;SDS011;13866;50.748;12.630;2024-03-08T09:18:37;23.17;;;18.73;;
26106;SDS011;13866;50.748;12.630;2024-03-08T09:21:03;27.97;;;17.83;;
26106;SDS011;13866;50.748;12.630;2024-03-08T09:23:30;22.00;;;19.07;;
26106;SDS011;13866;50.748;12.630;2024-03-08T09:25:58;23.73;;;19.17;;
26106;SDS011;13866;50.748;12.630;2024-03-08T09:28:24;21.43;;;18.57;;
26106;SDS011;13866;50.748;12.630;2024-03-08T09:30:50;31.23;;;18.73;;
26106;SDS011;13866;50.748;12.630;2024-03-08T09:33:15;22.53;;;19.63;;
26106;SDS011;13866;50.748;12.630;2024-03-08T09:35:44;22.67;;;17.40;;
26106;SDS011;13866;50.748;12.630;2024-03-08T09:38:13;20.30;;;17.33;;
26106;SDS011;13866;50.748;12.630;2024-03-08T09:40:43;20.23;;;17.80;;
26106;SDS011;13866;50.748;12.630;2024-03-08T09:43:12;22.53;;;17.90;;
26106;SDS011;13866;50.748;12.630;2024-03-08T09:45:38;26.47;;;17.97;;
26106;SDS011;13866;50.748;12.630;2024-03-08T09:48:07;23.43;;;17.60;;
26106;SDS011;13866;50.748;12.630;2024-03-08T09:50:39;24.23;;;16.47;;
26106;SDS011;13866;50.748;12.630;2024-03-08T09:53:06;22.40;;;18.37;;
26106;SDS011;13866;50.748;12.630;2024-03-08T09:55:38;22.47;;;17.10;;
26106;SDS011;13866;50.748;12.630;2024-03-08T09:58:13;20.53;;;17.67;;
26106;SDS011;13866;50.748;12.630;2024-03-08T10:00:58;19.20;;;16.77;;
26106;SDS011;13866;50.748;12.630;2024-03-08T10:03:26;24.60;;;17.97;;
26106;SDS011;13866;50.748;12.630;2024-03-08T10:05:52;21.57;;;17.90;;
26106;SDS011;13866;50.748;12.630;2024-03-08T10:08:25;24.10;;;18.47;;
26106;SDS011;13866;50.748;12.630;2024-03-08T10:10:52;20.33;;;17.33;;
26106;SDS011;13866;50.748;12.630;2024-03-08T10:13:17;22.53;;;18.37;;
26106;SDS011;13866;50.748;12.630;2024-03-08T10:15:44;23.03;;;18.17;;
26106;SDS011;13866;50.748;12.630;2024-03-08T10:18:10;22.13;;;16.47;;
26106;SDS011;13866;50.748;12.630;2024-03-08T10:20:35;20.57;;;17.03;;
26106;SDS011;13866;50.748;12.630;2024-03-08T10:23:01;21.10;;;17.60;;
26106;SDS011;13866;50.748;12.630;2024-03-08T10:25:29;20.37;;;16.47;;
26106;SDS011;13866;50.748;12.630;2024-03-08T10:27:58;28.50;;;17.20;;
26106;SDS011;13866;50.748;12.630;2024-03-08T10:30:23;20.07;;;16.67;;
26106;SDS011;13866;50.748;12.630;2024-03-08T10:32:49;21.93;;;17.83;;
26106;SDS011;13866;50.748;12.630;2024-03-08T10:35:16;27.90;;;18.97;;
26106;SDS011;13866;50.748;12.630;2024-03-08T10:37:46;21.23;;;17.20;;
26106;SDS011;13866;50.748;12.630;2024-03-08T10:40:15;25.67;;;19.20;;
26106;SDS011;13866;50.748;12.630;2024-03-08T10:42:52;25.70;;;18.80;;
26106;SDS011;13866;50.748;12.630;2024-03-08T10:48:09;25.60;;;19.80;;
26106;SDS011;13866;50.748;12.630;2024-03-08T10:50:52;24.37;;;18.17;;
26106;SDS011;13866;50.748;12.630;2024-03-08T10:53:18;31.10;;;20.20;;
26106;SDS011;13866;50.748;12.630;2024-03-08T10:55:47;24.30;;;20.10;;
26106;SDS011;13866;50.748;12.630;2024-03-08T10:58:14;25.03;;;19.40;;
26106;SDS011;13866;50.748;12.630;2024-03-08T11:00:41;18.80;;;16.80;;
26106;SDS011;13866;50.748;12.630;2024-03-08T11:03:07;29.73;;;19.53;;
26106;SDS011;13866;50.748;12.630;2024-03-08T11:05:54;25.20;;;18.07;;
26106;SDS011;13866;50.748;12.630;2024-03-08T11:08:19;25.57;;;17.70;;
26106;SDS011;13866;50.748;12.630;2024-03-08T11:10:52;26.17;;;18.90;;
26106;SDS011;13866;50.748;12.630;2024-03-08T11:16:39;21.93;;;17.80;;
26106;SDS011;13866;50.748;12.630;2024-03-08T11:19:01;24.07;;;18.37;;
26106;SDS011;13866;50.748;12.630;2024-03-08T11:21:35;28.90;;;20.07;;
26106;SDS011;13866;50.748;12.630;2024-03-08T11:24:08;20.03;;;17.83;;
26106;SDS011;13866;50.748;12.630;2024-03-08T11:26:36;25.30;;;18.97;;
26106;SDS011;13866;50.748;12.630;2024-03-08T11:34:38;22.30;;;18.10;;
26106;SDS011;13866;50.748;12.630;2024-03-08T11:37:14;21.37;;;14.50;;
26106;SDS011;13866;50.748;12.630;2024-03-08T11:39:52;16.23;;;14.40;;
26106;SDS011;13866;50.748;12.630;2024-03-08T11:42:23;15.93;;;14.27;;
26106;SDS011;13866;50.748;12.630;2024-03-08T11:44:51;17.67;;;15.80;;
26106;SDS011;13866;50.748;12.630;2024-03-08T11:47:17;25.83;;;15.97;;
26106;SDS011;13866;50.748;12.630;2024-03-08T11:49:43;15.57;;;13.83;;
26106;SDS011;13866;50.748;12.630;2024-03-08T11:52:13;16.73;;;14.70;;
26106;SDS011;13866;50.748;12.630;2024-03-08T11:54:47;14.63;;;13.17;;
26106;SDS011;13866;50.748;12.630;2024-03-08T11:57:19;17.77;;;15.10;;
26106;SDS011;13866;50.748;12.630;2024-03-08T11:59:53;16.87;;;14.20;;
26106;SDS011;13866;50.748;12.630;2024-03-08T12:02:21;15.10;;;13.50;;
26106;SDS011;13866;50.748;12.630;2024-03-08T12:04:48;15.47;;;12.30;;
26106;SDS011;13866;50.748;12.630;2024-03-08T12:07:22;15.60;;;14.03;;
26106;SDS011;13866;50.748;12.630;2024-03-08T12:12:43;15.33;;;13.23;;
26106;SDS011;13866;50.748;12.630;2024-03-08T12:15:09;14.50;;;12.07;;
26106;SDS011;13866;50.748;12.630;2024-03-08T12:17:36;12.87;;;11.60;;
26106;SDS011;13866;50.748;12.630;2024-03-08T12:20:19;13.20;;;11.90;;
26106;SDS011;13866;50.748;12.630;2024-03-08T12:22:50;16.43;;;14.73;;
26106;SDS011;13866;50.748;12.630;2024-03-08T12:25:21;16.23;;;13.00;;
26106;SDS011;13866;50.748;12.630;2024-03-08T12:27:47;15.00;;;13.70;;
26106;SDS011;13866;50.748;12.630;2024-03-08T12:33:30;14.73;;;13.43;;
26106;SDS011;13866;50.748;12.630;2024-03-08T12:35:56;19.73;;;16.97;;
26106;SDS011;13866;50.748;12.630;2024-03-08T12:38:23;18.50;;;15.37;;
26106;SDS011;13866;50.748;12.630;2024-03-08T12:40:50;22.50;;;15.33;;
26106;SDS011;13866;50.748;12.630;2024-03-08T12:43:15;20.87;;;17.57;;
26106;SDS011;13866;50.748;12.630;2024-03-08T12:45:41;21.97;;;17.10;;
26106;SDS011;13866;50.748;12.630;2024-03-08T12:48:12;20.63;;;17.30;;
26106;SDS011;13866;50.748;12.630;2024-03-08T12:50:42;23.43;;;19.63;;
26106;SDS011;13866;50.748;12.630;2024-03-08T12:53:12;21.10;;;18.63;;
26106;SDS011;13866;50.748;12.630;2024-03-08T12:55:38;24.50;;;18.80;;
26106;SDS011;13866;50.748;12.630;2024-03-08T12:58:05;21.20;;;16.67;;
26106;SDS011;13866;50.748;12.630;2024-03-08T13:00:32;19.60;;;17.53;;
26106;SDS011;13866;50.748;12.630;2024-03-08T13:03:01;22.10;;;19.00;;
26106;SDS011;13866;50.748;12.630;2024-03-08T13:05:27;20.77;;;18.73;;
26106;SDS011;13866;50.748;12.630;2024-03-08T13:07:53;20.73;;;17.93;;
26106;SDS011;13866;50.748;12.630;2024-03-08T13:10:19;21.03;;;18.80;;
26106;SDS011;13866;50.748;12.630;2024-03-08T13:12:45;19.57;;;16.00;;
26106;SDS011;13866;50.748;12.630;2024-03-08T13:15:12;18.83;;;15.70;;
26106;SDS011;13866;50.748;12.630;2024-03-08T13:17:45;19.10;;;15.90;;
26106;SDS011;13866;50.748;12.630;2024-03-08T13:20:11;19.30;;;14.80;;
26106;SDS011;13866;50.748;12.630;2024-03-08T13:22:43;16.83;;;15.20;;
26106;SDS011;13866;50.748;12.630;2024-03-08T13:25:10;19.00;;;16.13;;
26106;SDS011;13866;50.748;12.630;2024-03-08T13:27:39;18.70;;;16.90;;
26106;SDS011;13866;50.748;12.630;2024-03-08T13:30:07;16.27;;;14.67;;
26106;SDS011;13866;50.748;12.630;2024-03-08T13:32:36;18.10;;;16.17;;
26106;SDS011;13866;50.748;12.630;2024-03-08T13:35:01;20.43;;;18.20;;
26106;SDS011;13866;50.748;12.630;2024-03-08T13:37:27;21.13;;;18.07;;
26106;SDS011;13866;50.748;12.630;2024-03-08T13:39:52;26.70;;;17.33;;
26106;SDS011;13866;50.748;12.630;2024-03-08T13:42:18;22.53;;;16.77;;
26106;SDS011;13866;50.748;12.630;2024-03-08T13:44:47;20.67;;;17.53;;
26106;SDS011;13866;50.748;12.630;2024-03-08T13:47:15;18.57;;;15.57;;
26106;SDS011;13866;50.748;12.630;2024-03-08T13:49:42;16.43;;;14.73;;
26106;SDS011;13866;50.748;12.630;2024-03-08T13:52:08;22.47;;;16.17;;
26106;SDS011;13866;50.748;12.630;2024-03-08T13:54:35;21.17;;;18.03;;
26106;SDS011;13866;50.748;12.630;2024-03-08T13:57:01;20.93;;;17.13;;
26106;SDS011;13866;50.748;12.630;2024-03-08T13:59:29;19.93;;;16.90;;
26106;SDS011;13866;50.748;12.630;2024-03-08T14:01:55;18.80;;;16.90;;
26106;SDS011;13866;50.748;12.630;2024-03-08T14:04:22;29.20;;;19.77;;
26106;SDS011;13866;50.748;12.630;2024-03-08T14:06:49;26.93;;;20.83;;
26106;SDS011;13866;50.748;12.630;2024-03-08T14:09:14;27.60;;;19.33;;
26106;SDS011;13866;50.748;12.630;2024-03-08T14:11:45;26.30;;;19.47;;
26106;SDS011;13866;50.748;12.630;2024-03-08T14:14:11;22.30;;;19.77;;
26106;SDS011;13866;50.748;12.630;2024-03-08T14:16:38;29.53;;;18.47;;
26106;SDS011;13866;50.748;12.630;2024-03-08T14:19:04;26.93;;;20.17;;
26106;SDS011;13866;50.748;12.630;2024-03-08T14:21:30;24.50;;;21.27;;
26106;SDS011;13866;50.748;12.630;2024-03-08T14:23:56;26.17;;;22.60;;
26106;SDS011;13866;50.748;12.630;2024-03-08T14:26:22;26.73;;;23.57;;